Sagle, Idaho
Current Conditions -  °F | °C
As of 4:35 AM on Thursday 18 Dec 2014 (Local Time) from KSZT Reporting Station
Moderate Rain Moderate Rain  
Wind Chill: 32°   Ceiling: 1700
Heat Index: 32°   Visibility: 3mi
Dew Point: 32°   Wind: 0mph
Humidity: 100%   Direction: NA
Pressure: 29.98"   Gusts: NA
Location:  48.2°N, 116.55°W
Report Text: KSZT 181235Z AUTO 00000KT 3SM RA OVC017 00/00 A2998 RMK AO2
Loading
Personal Weather Stations






























Interactive Weather Map New forecast layout! Learn more

10-Day Weather Forecast

Advertisements
Track Severe Weather on mobile